Time;durP1;ratioP1;P1;durP2;ratioP2;P2;SDS_P1;SDS_P2;PMS_P1;PMS_P2;Temp;Humidity;BMP_temperature;BMP_pressure;BME280_temperature;BME280_humidity;BME280_pressure;Samples;Min_cycle;Max_cycle;Signal;HPM_P1;HPM_P2
2024/01/06 00:00:10;;;;;;;1.80;1.08;;;15.80;48.80;;;;;;5116498;28;20196;-61
2024/01/06 00:02:37;;;;;;;2.65;1.48;;;15.80;48.80;;;;;;5116512;28;20224;-61
2024/01/06 00:05:05;;;;;;;1.92;1.10;;;15.70;48.70;;;;;;5116526;28;20271;-62
2024/01/06 00:07:32;;;;;;;3.17;1.30;;;15.80;48.80;;;;;;5116252;28;20231;-62
2024/01/06 00:10:00;;;;;;;2.80;1.10;;;15.80;48.80;;;;;;5116098;28;20284;-62
2024/01/06 00:12:27;;;;;;;3.13;1.30;;;15.80;48.80;;;;;;5116035;28;20778;-62
2024/01/06 00:14:53;;;;;;;2.72;1.60;;;15.80;48.80;;;;;;5115465;28;20276;-62
2024/01/06 00:17:20;;;;;;;1.40;1.08;;;15.80;48.70;;;;;;5116177;28;20303;-61
2024/01/06 00:19:50;;;;;;;1.75;1.00;;;15.80;48.80;;;;;;5116236;28;20276;-62
2024/01/06 00:22:17;;;;;;;2.45;1.30;;;15.70;49.30;;;;;;5116502;28;20217;-61
2024/01/06 00:24:44;;;;;;;3.05;1.20;;;15.70;48.70;;;;;;5115556;28;20758;-62
2024/01/06 00:27:13;;;;;;;1.63;1.10;;;15.70;48.70;;;;;;5115832;28;20308;-61
2024/01/06 00:29:40;;;;;;;2.08;1.27;;;15.70;48.60;;;;;;5115680;28;20200;-61
2024/01/06 00:32:07;;;;;;;3.50;1.30;;;15.70;48.60;;;;;;5115593;28;20308;-61
2024/01/06 00:34:34;;;;;;;1.92;1.10;;;15.70;48.60;;;;;;5115919;28;20303;-62
2024/01/06 00:37:01;;;;;;;2.35;1.25;;;15.70;48.60;;;;;;5115852;28;20299;-62
2024/01/06 00:39:28;;;;;;;1.15;1.00;;;15.70;48.60;;;;;;5115599;28;20533;-62
2024/01/06 00:41:55;;;;;;;1.73;1.00;;;15.70;48.60;;;;;;5115724;28;20303;-61
2024/01/06 00:44:23;;;;;;;1.40;1.00;;;15.70;49.30;;;;;;5115186;28;20559;-62
2024/01/06 00:46:50;;;;;;;3.08;1.10;;;15.70;48.70;;;;;;5115429;28;20343;-61
2024/01/06 00:49:17;;;;;;;3.08;1.00;;;15.70;48.70;;;;;;5115490;28;20228;-62
2024/01/06 00:51:44;;;;;;;2.63;0.80;;;15.70;49.30;;;;;;5115755;28;20304;-61
2024/01/06 00:54:12;;;;;;;3.30;1.05;;;15.70;48.70;;;;;;5115102;28;20259;-62
2024/01/06 00:56:38;;;;;;;3.60;0.90;;;15.70;48.70;;;;;;5114484;28;20694;-62
2024/01/06 00:59:05;;;;;;;1.95;1.00;;;15.70;48.60;;;;;;5114525;28;20272;-62
2024/01/06 01:01:34;;;;;;;1.88;1.05;;;15.70;48.60;;;;;;5114813;28;20306;-62
2024/01/06 01:04:01;;;;;;;1.33;0.85;;;15.70;48.60;;;;;;5115427;28;20275;-61
2024/01/06 01:06:28;;;;;;;3.55;0.85;;;15.70;48.60;;;;;;5115399;28;20205;-61
2024/01/06 01:08:55;;;;;;;2.05;0.90;;;15.70;48.60;;;;;;5115074;28;20272;-62
2024/01/06 01:11:22;;;;;;;2.70;1.00;;;15.70;48.60;;;;;;5115157;28;20304;-61
2024/01/06 01:13:48;;;;;;;1.35;0.90;;;15.70;48.60;;;;;;5114453;28;20300;-61
2024/01/06 01:16:15;;;;;;;1.58;1.05;;;15.70;48.60;;;;;;5114936;28;20304;-62
2024/01/06 01:18:44;;;;;;;2.38;1.15;;;15.70;48.60;;;;;;5115137;28;20213;-62
2024/01/06 01:21:11;;;;;;;2.25;1.20;;;15.70;48.60;;;;;;5115045;28;20216;-62
2024/01/06 01:23:38;;;;;;;1.10;1.00;;;15.70;48.60;;;;;;5114441;28;20185;-60
2024/01/06 01:26:05;;;;;;;4.47;1.10;;;15.70;48.60;;;;;;5114740;28;20247;-61
2024/01/06 01:28:31;;;;;;;3.00;1.13;;;15.70;48.50;;;;;;5114425;28;20281;-62
2024/01/06 01:30:58;;;;;;;2.13;1.08;;;15.60;48.50;;;;;;5114203;28;20300;-61
2024/01/06 01:33:26;;;;;;;2.35;0.90;;;15.70;48.60;;;;;;5114808;28;20304;-61
2024/01/06 01:35:54;;;;;;;3.47;1.10;;;15.70;48.60;;;;;;5114597;28;20566;-61
2024/01/06 01:38:21;;;;;;;2.33;1.00;;;15.70;48.60;;;;;;5114302;28;20252;-62
2024/01/06 01:40:48;;;;;;;2.60;1.00;;;15.70;48.60;;;;;;5114698;28;20308;-61
2024/01/06 01:43:18;;;;;;;2.28;0.90;;;15.70;48.50;;;;;;5113951;28;20268;-62
2024/01/06 01:45:49;;;;;;;2.25;1.10;;;15.70;48.50;;;;;;5114431;28;20217;-62
2024/01/06 01:48:16;;;;;;;2.10;0.90;;;15.70;48.50;;;;;;5114047;28;20320;-62
2024/01/06 01:50:43;;;;;;;1.42;0.90;;;15.70;48.50;;;;;;5114181;28;20556;-61
2024/01/06 01:53:11;;;;;;;1.05;0.90;;;15.60;48.40;;;;;;5114177;28;20770;-61
2024/01/06 01:55:38;;;;;;;1.95;1.10;;;15.70;48.50;;;;;;5114136;28;20722;-62
2024/01/06 01:58:06;;;;;;;1.73;1.00;;;15.60;48.30;;;;;;5113705;28;20288;-61
2024/01/06 02:00:33;;;;;;;1.67;0.90;;;15.70;48.40;;;;;;5113695;28;20742;-61
2024/01/06 02:03:00;;;;;;;2.72;1.20;;;15.70;48.30;;;;;;5114332;28;20268;-61
2024/01/06 02:05:27;;;;;;;2.72;1.27;;;15.60;48.30;;;;;;5114145;28;20268;-62
2024/01/06 02:07:54;;;;;;;3.65;1.00;;;15.60;48.30;;;;;;5113787;28;20265;-61
2024/01/06 02:10:22;;;;;;;2.42;1.05;;;15.60;48.30;;;;;;5113993;28;20284;-62
2024/01/06 02:12:51;;;;;;;1.45;0.80;;;15.60;48.20;;;;;;5113097;28;20741;-61
2024/01/06 02:15:18;;;;;;;2.13;1.08;;;15.70;48.20;;;;;;5113891;28;20587;-61
2024/01/06 02:17:45;;;;;;;1.75;0.82;;;15.60;48.20;;;;;;5114038;28;20308;-61
2024/01/06 02:20:13;;;;;;;1.50;1.00;;;15.60;48.10;;;;;;5113922;28;20310;-62
2024/01/06 02:22:42;;;;;;;3.30;0.93;;;15.60;48.00;;;;;;5113749;28;20648;-61
2024/01/06 02:25:12;;;;;;;1.77;0.98;;;15.60;48.00;;;;;;5113721;28;20273;-62
2024/01/06 02:27:39;;;;;;;1.08;0.80;;;15.60;48.00;;;;;;5113143;28;20252;-61
2024/01/06 02:30:08;;;;;;;2.47;0.80;;;15.60;47.90;;;;;;5113611;28;20276;-62
2024/01/06 02:32:35;;;;;;;2.25;0.90;;;15.60;47.90;;;;;;5113806;28;20213;-61
2024/01/06 02:35:02;;;;;;;3.17;0.90;;;15.60;47.90;;;;;;5113596;28;20301;-62
2024/01/06 02:37:29;;;;;;;1.02;0.90;;;15.60;47.80;;;;;;5113403;28;20328;-61
2024/01/06 02:39:58;;;;;;;1.67;1.08;;;15.60;47.80;;;;;;5113609;28;20238;-61
2024/01/06 02:42:25;;;;;;;2.25;0.90;;;15.60;47.80;;;;;;5112865;28;20252;-61
2024/01/06 02:44:52;;;;;;;1.33;0.80;;;15.60;48.40;;;;;;5113526;28;20272;-61
2024/01/06 02:47:19;;;;;;;3.42;1.00;;;15.60;47.70;;;;;;5113031;28;20239;-61
2024/01/06 02:49:45;;;;;;;1.42;0.90;;;15.60;47.70;;;;;;5112984;28;20664;-61
2024/01/06 02:52:12;;;;;;;2.17;1.00;;;15.60;47.60;;;;;;5113113;28;20308;-61
2024/01/06 02:54:39;;;;;;;1.35;0.90;;;15.60;47.60;;;;;;5112538;28;20573;-63
2024/01/06 02:57:07;;;;;;;1.55;0.80;;;15.60;47.70;;;;;;5112584;28;20213;-62
2024/01/06 02:59:34;;;;;;;2.33;1.05;;;15.60;47.60;;;;;;5113243;28;20185;-62
2024/01/06 03:02:02;;;;;;;1.40;0.75;;;15.60;47.60;;;;;;5112683;28;20595;-62
2024/01/06 03:04:29;;;;;;;1.45;0.90;;;15.60;47.60;;;;;;5112891;28;20638;-60
2024/01/06 03:06:56;;;;;;;1.15;0.88;;;15.60;47.60;;;;;;5113129;28;20301;-62
2024/01/06 03:09:23;;;;;;;2.88;1.20;;;15.60;47.60;;;;;;5112438;28;20292;-62
2024/01/06 03:11:49;;;;;;;1.73;0.98;;;15.60;47.60;;;;;;5112147;28;20215;-61
2024/01/06 03:14:18;;;;;;;2.55;1.00;;;15.60;47.50;;;;;;5113197;28;20256;-62
2024/01/06 03:16:44;;;;;;;2.45;1.15;;;15.50;47.40;;;;;;5112750;28;20317;-61
2024/01/06 03:19:11;;;;;;;3.30;1.30;;;15.50;47.50;;;;;;5112750;28;20280;-61
2024/01/06 03:21:38;;;;;;;1.35;0.90;;;15.50;47.40;;;;;;5112474;28;20300;-62
2024/01/06 03:24:06;;;;;;;1.38;1.00;;;15.50;47.40;;;;;;5112581;28;20276;-62
2024/01/06 03:26:33;;;;;;;2.13;1.17;;;15.50;47.40;;;;;;5112132;28;20300;-62
2024/01/06 03:29:02;;;;;;;1.75;1.05;;;15.50;47.40;;;;;;5112564;28;20644;-62
2024/01/06 03:31:30;;;;;;;3.03;1.00;;;15.50;47.40;;;;;;5112217;28;20705;-61
2024/01/06 03:33:57;;;;;;;1.10;0.77;;;15.50;47.40;;;;;;5112752;28;20296;-61
2024/01/06 03:36:23;;;;;;;1.05;0.90;;;15.50;47.50;;;;;;5112837;28;20244;-61
2024/01/06 03:38:50;;;;;;;1.00;0.90;;;15.60;47.50;;;;;;5112206;28;20251;-62
2024/01/06 03:41:17;;;;;;;1.88;1.10;;;15.50;47.40;;;;;;5111738;28;20303;-62
2024/01/06 03:43:43;;;;;;;4.38;0.80;;;15.50;47.50;;;;;;5112751;28;20284;-61
2024/01/06 03:46:10;;;;;;;3.17;1.08;;;15.50;47.30;;;;;;5112150;28;20657;-62
2024/01/06 03:48:38;;;;;;;1.92;0.90;;;15.60;47.50;;;;;;5112362;28;20324;-62
2024/01/06 03:51:06;;;;;;;1.42;0.80;;;15.50;47.40;;;;;;5112428;28;20333;-61
2024/01/06 03:53:32;;;;;;;1.77;0.80;;;15.50;47.30;;;;;;5111866;28;20750;-62
2024/01/06 03:56:00;;;;;;;2.92;1.00;;;15.50;47.30;;;;;;5112234;28;20304;-62
2024/01/06 03:58:27;;;;;;;2.25;0.93;;;15.50;47.30;;;;;;5111667;28;20647;-62
2024/01/06 04:00:54;;;;;;;2.05;0.85;;;15.50;47.20;;;;;;5111933;28;20185;-62
2024/01/06 04:03:21;;;;;;;2.70;1.08;;;15.50;47.20;;;;;;5112253;28;20273;-62
2024/01/06 04:05:49;;;;;;;2.33;1.00;;;15.50;47.20;;;;;;5105741;28;20288;-61
2024/01/06 04:08:16;;;;;;;1.85;0.88;;;15.50;47.20;;;;;;5094152;28;20294;-62
2024/01/06 04:10:43;;;;;;;1.67;1.10;;;15.50;47.20;;;;;;5112357;28;20273;-62
2024/01/06 04:13:10;;;;;;;2.67;1.00;;;15.50;47.20;;;;;;5104942;28;20579;-61
2024/01/06 04:15:37;;;;;;;1.95;0.88;;;15.50;47.20;;;;;;5091463;28;20301;-61
2024/01/06 04:18:05;;;;;;;1.92;1.20;;;15.50;47.20;;;;;;5091611;28;20277;-61
2024/01/06 04:20:32;;;;;;;1.13;0.95;;;15.50;47.20;;;;;;5092059;28;20560;-61
2024/01/06 04:23:01;;;;;;;1.40;0.90;;;15.50;47.20;;;;;;5091856;28;20209;-61
2024/01/06 04:25:27;;;;;;;2.92;1.15;;;15.50;47.20;;;;;;5091752;28;20285;-61
2024/01/06 04:27:54;;;;;;;1.50;0.85;;;15.50;47.20;;;;;;5090903;28;20241;-61
2024/01/06 04:30:21;;;;;;;2.38;0.80;;;15.50;47.20;;;;;;5091632;28;20280;-62
2024/01/06 04:32:48;;;;;;;2.60;1.17;;;15.50;47.20;;;;;;5095532;28;20692;-61
2024/01/06 04:35:16;;;;;;;1.60;0.93;;;15.50;47.20;;;;;;5095425;28;20225;-62
2024/01/06 04:37:42;;;;;;;1.52;0.70;;;15.50;47.20;;;;;;5095454;28;20217;-61
2024/01/06 04:40:12;;;;;;;1.15;0.73;;;15.50;47.20;;;;;;5095508;28;20280;-62
2024/01/06 04:42:39;;;;;;;1.77;0.70;;;15.50;47.20;;;;;;5094722;28;20300;-61
2024/01/06 04:45:08;;;;;;;1.33;0.70;;;15.50;47.70;;;;;;5095167;28;20280;-61
2024/01/06 04:47:35;;;;;;;2.58;0.88;;;15.50;47.20;;;;;;5095217;28;20224;-61
2024/01/06 04:50:01;;;;;;;3.17;0.90;;;15.40;47.00;;;;;;5095389;28;20286;-62
2024/01/06 04:52:29;;;;;;;1.38;0.95;;;15.50;47.00;;;;;;5095149;28;20246;-61
2024/01/06 04:54:56;;;;;;;1.95;1.00;;;15.50;47.00;;;;;;5094861;28;20304;-61
2024/01/06 04:57:24;;;;;;;2.33;0.68;;;15.50;46.90;;;;;;5094166;28;20305;-61
2024/01/06 04:59:51;;;;;;;2.13;0.80;;;15.50;47.00;;;;;;5094832;28;20265;-61
2024/01/06 05:02:18;;;;;;;1.83;0.90;;;15.40;46.80;;;;;;5095329;28;20643;-62
2024/01/06 05:04:45;;;;;;;1.65;0.90;;;15.40;46.80;;;;;;5094681;28;20732;-62
2024/01/06 05:07:12;;;;;;;2.25;1.02;;;15.40;46.80;;;;;;5094666;28;20287;-61
2024/01/06 05:09:39;;;;;;;1.65;0.80;;;15.40;46.70;;;;;;5094574;28;20728;-61
2024/01/06 05:12:06;;;;;;;2.28;0.98;;;15.40;46.70;;;;;;5093933;28;20216;-61
2024/01/06 05:14:34;;;;;;;4.10;0.98;;;15.40;46.70;;;;;;5094149;28;20303;-61
2024/01/06 05:17:01;;;;;;;2.78;1.20;;;15.40;46.60;;;;;;5094941;28;20367;-61
2024/01/06 05:19:28;;;;;;;2.47;0.80;;;15.40;46.60;;;;;;5094468;28;20654;-62
2024/01/06 05:21:55;;;;;;;1.08;0.85;;;15.40;46.60;;;;;;5094169;28;20626;-61
2024/01/06 05:24:22;;;;;;;2.55;1.10;;;15.40;46.60;;;;;;5094719;28;20281;-61
2024/01/06 05:26:48;;;;;;;2.05;1.00;;;15.40;46.60;;;;;;5093886;28;20210;-61
2024/01/06 05:29:15;;;;;;;2.05;1.17;;;15.40;46.60;;;;;;5094198;28;20214;-61
2024/01/06 05:31:46;;;;;;;3.92;1.40;;;15.40;46.60;;;;;;5094613;28;20254;-61
2024/01/06 05:34:12;;;;;;;4.10;1.30;;;15.40;46.60;;;;;;5094175;28;20666;-61
2024/01/06 05:36:39;;;;;;;3.20;1.27;;;15.40;46.60;;;;;;5094083;28;20241;-62
2024/01/06 05:39:07;;;;;;;4.00;0.93;;;15.40;46.60;;;;;;5094376;28;20193;-62
2024/01/06 05:41:38;;;;;;;4.50;0.90;;;15.40;46.60;;;;;;5093335;28;20700;-62
2024/01/06 05:44:05;;;;;;;2.88;1.00;;;15.40;46.60;;;;;;5093314;28;20190;-61
2024/01/06 05:46:32;;;;;;;2.35;1.13;;;15.40;46.60;;;;;;5093888;28;20774;-62
2024/01/06 05:49:00;;;;;;;3.38;1.00;;;15.40;46.60;;;;;;5093895;28;20595;-61
2024/01/06 05:51:27;;;;;;;2.70;1.10;;;15.40;46.60;;;;;;5093960;28;20657;-62
2024/01/06 05:53:54;;;;;;;2.95;1.42;;;15.40;47.20;;;;;;5093815;28;20567;-60
2024/01/06 05:56:25;;;;;;;2.05;0.80;;;15.40;46.60;;;;;;5092916;28;20230;-61
2024/01/06 05:58:52;;;;;;;2.45;1.08;;;15.40;46.50;;;;;;5093626;28;20192;-61
2024/01/06 06:01:20;;;;;;;5.15;1.10;;;15.40;46.50;;;;;;5093540;28;20221;-61
2024/01/06 06:03:47;;;;;;;2.97;1.05;;;15.40;46.50;;;;;;5093736;28;20186;-61
2024/01/06 06:06:15;;;;;;;2.25;1.20;;;15.40;46.50;;;;;;5093338;28;20304;-62
2024/01/06 06:08:42;;;;;;;1.60;0.90;;;15.40;46.50;;;;;;5093821;28;20186;-61
2024/01/06 06:11:11;;;;;;;4.95;1.10;;;15.40;46.50;;;;;;5092705;28;20222;-61
2024/01/06 06:13:39;;;;;;;3.35;1.10;;;15.40;46.40;;;;;;5092966;28;20182;-62
2024/01/06 06:16:06;;;;;;;2.13;0.82;;;15.40;46.50;;;;;;5093208;28;20688;-61
2024/01/06 06:18:33;;;;;;;6.03;1.40;;;15.40;46.50;;;;;;5093604;28;20190;-62
2024/01/06 06:21:00;;;;;;;2.55;1.05;;;15.40;46.40;;;;;;5092909;28;20667;-62
2024/01/06 06:23:29;;;;;;;2.33;0.95;;;15.40;46.40;;;;;;5093531;28;20272;-61
2024/01/06 06:25:56;;;;;;;2.70;0.85;;;15.40;46.40;;;;;;5092771;28;20190;-61
2024/01/06 06:28:22;;;;;;;2.10;1.10;;;15.40;46.40;;;;;;5093119;28;20285;-61
2024/01/06 06:30:49;;;;;;;3.45;1.20;;;15.40;46.40;;;;;;5093333;28;20269;-62
2024/01/06 06:33:17;;;;;;;1.85;1.13;;;15.40;46.40;;;;;;5092982;28;20254;-62
2024/01/06 06:35:44;;;;;;;1.55;0.95;;;15.40;46.40;;;;;;5092975;28;20268;-62
2024/01/06 06:38:11;;;;;;;1.85;1.33;;;15.40;46.40;;;;;;5093319;28;20300;-61
2024/01/06 06:40:39;;;;;;;1.95;1.00;;;15.30;46.30;;;;;;5092214;28;20186;-62
2024/01/06 06:43:06;;;;;;;4.78;1.20;;;15.40;46.20;;;;;;5092458;28;20300;-61
2024/01/06 06:45:33;;;;;;;3.35;1.23;;;15.40;46.30;;;;;;5093125;28;20197;-61
2024/01/06 06:48:00;;;;;;;2.17;1.13;;;15.30;46.20;;;;;;5092820;28;20440;-62
2024/01/06 06:50:27;;;;;;;6.15;1.00;;;15.40;46.20;;;;;;5092890;28;20223;-62
2024/01/06 06:52:54;;;;;;;3.05;1.27;;;15.30;46.20;;;;;;5093199;28;20301;-62
2024/01/06 06:55:20;;;;;;;2.50;1.00;;;15.30;46.10;;;;;;5091310;28;20581;-62
2024/01/06 06:57:49;;;;;;;3.20;1.23;;;15.30;46.10;;;;;;5092187;28;20770;-61
2024/01/06 07:00:17;;;;;;;2.08;1.00;;;15.30;46.10;;;;;;5092940;28;20198;-61
2024/01/06 07:02:43;;;;;;;3.25;1.13;;;15.30;46.10;;;;;;5092965;28;20221;-62
2024/01/06 07:05:10;;;;;;;2.10;1.02;;;15.30;46.00;;;;;;5092501;28;20277;-62
2024/01/06 07:07:38;;;;;;;4.45;1.02;;;15.30;45.90;;;;;;5092829;28;20643;-61
2024/01/06 07:10:06;;;;;;;1.92;1.27;;;15.30;46.00;;;;;;5092011;28;20190;-62
2024/01/06 07:12:33;;;;;;;2.60;1.02;;;15.40;46.70;;;;;;5092264;28;20218;-62
2024/01/06 07:15:01;;;;;;;1.17;0.98;;;15.30;46.10;;;;;;5092639;28;20210;-61
2024/01/06 07:17:28;;;;;;;3.45;1.27;;;15.30;46.00;;;;;;5092943;28;20653;-61
2024/01/06 07:19:55;;;;;;;3.55;1.10;;;15.30;46.60;;;;;;5092253;28;20620;-62
2024/01/06 07:22:22;;;;;;;2.10;0.93;;;15.30;46.00;;;;;;5092656;28;20217;-62
2024/01/06 07:24:49;;;;;;;4.45;1.00;;;15.30;45.90;;;;;;5091862;28;20182;-62
2024/01/06 07:27:16;;;;;;;2.92;1.20;;;15.30;46.60;;;;;;5092209;28;20309;-62
2024/01/06 07:29:42;;;;;;;3.42;1.02;;;15.30;46.00;;;;;;5092411;28;20198;-62
2024/01/06 07:32:11;;;;;;;1.98;1.13;;;15.30;46.00;;;;;;5092481;28;20224;-62
2024/01/06 07:34:37;;;;;;;3.40;1.30;;;15.30;46.00;;;;;;5091986;28;20277;-62
2024/01/06 07:37:05;;;;;;;3.30;1.25;;;15.30;45.90;;;;;;5092515;28;20214;-61
2024/01/06 07:39:33;;;;;;;2.75;1.10;;;15.30;46.00;;;;;;5091975;28;20188;-61
2024/01/06 07:42:00;;;;;;;3.55;1.23;;;15.30;45.90;;;;;;5091790;28;20217;-62
2024/01/06 07:44:27;;;;;;;3.08;1.08;;;15.30;46.00;;;;;;5091980;28;20739;-61
2024/01/06 07:46:54;;;;;;;1.73;1.00;;;15.30;46.00;;;;;;5092183;28;20300;-62
2024/01/06 07:49:22;;;;;;;3.05;1.13;;;15.30;46.00;;;;;;5091503;28;20230;-61
2024/01/06 07:51:49;;;;;;;2.88;1.23;;;15.30;46.00;;;;;;5092662;28;20301;-62
2024/01/06 07:54:15;;;;;;;2.08;0.90;;;15.30;46.00;;;;;;5092231;28;20269;-61
2024/01/06 07:56:43;;;;;;;2.20;0.98;;;15.30;46.00;;;;;;5091416;28;20229;-61
2024/01/06 07:59:11;;;;;;;2.72;1.00;;;15.30;46.60;;;;;;5092203;28;20194;-62
2024/01/06 08:01:38;;;;;;;2.15;0.90;;;15.30;46.00;;;;;;5092290;28;20224;-62
2024/01/06 08:04:05;;;;;;;4.03;1.20;;;15.30;46.10;;;;;;5091882;28;20196;-62
2024/01/06 08:06:33;;;;;;;4.22;1.20;;;15.30;46.00;;;;;;5094114;28;20527;-62
2024/01/06 08:09:00;;;;;;;1.95;1.10;;;15.30;46.10;;;;;;5096031;28;20277;-61
2024/01/06 08:11:27;;;;;;;2.25;1.02;;;15.30;46.20;;;;;;5094712;28;20228;-60
2024/01/06 08:13:54;;;;;;;2.60;1.10;;;15.30;46.10;;;;;;5096121;28;20277;-61
2024/01/06 08:16:21;;;;;;;1.98;1.02;;;15.30;46.10;;;;;;5095856;28;20234;-62
2024/01/06 08:18:48;;;;;;;2.60;1.10;;;15.30;46.20;;;;;;5095579;28;20277;-61
2024/01/06 08:21:15;;;;;;;3.60;1.20;;;15.30;46.20;;;;;;5096179;28;20266;-61
2024/01/06 08:23:43;;;;;;;0.90;0.80;;;15.30;46.20;;;;;;5095801;28;20285;-62
2024/01/06 08:26:10;;;;;;;6.35;1.10;;;15.30;46.20;;;;;;5094509;28;20276;-61
2024/01/06 08:28:37;;;;;;;2.45;1.20;;;15.30;46.20;;;;;;5095713;28;20732;-61
2024/01/06 08:31:04;;;;;;;2.33;1.20;;;15.30;46.20;;;;;;5095366;28;20720;-62
2024/01/06 08:33:31;;;;;;;1.63;1.02;;;15.30;46.30;;;;;;5095405;28;20218;-62
2024/01/06 08:35:57;;;;;;;1.55;1.05;;;15.30;46.30;;;;;;5095267;28;20220;-61
2024/01/06 08:38:24;;;;;;;1.98;1.05;;;15.30;46.30;;;;;;5095951;28;20300;-62
2024/01/06 08:40:53;;;;;;;3.55;1.20;;;15.30;46.40;;;;;;5094618;28;20277;-61
2024/01/06 08:43:20;;;;;;;3.35;1.00;;;15.30;46.40;;;;;;5095091;28;20214;-62
2024/01/06 08:45:47;;;;;;;1.42;0.95;;;15.30;46.40;;;;;;5095486;28;20190;-61
2024/01/06 08:48:15;;;;;;;2.05;1.20;;;15.30;46.30;;;;;;5094968;28;20225;-61
2024/01/06 08:50:42;;;;;;;2.63;1.20;;;15.30;46.40;;;;;;5095286;28;20194;-62
2024/01/06 08:53:08;;;;;;;2.85;1.20;;;15.30;46.40;;;;;;5095240;28;20240;-61
2024/01/06 08:55:35;;;;;;;3.80;1.00;;;15.30;46.40;;;;;;5094189;28;20240;-61
2024/01/06 08:58:04;;;;;;;2.72;1.35;;;15.30;46.40;;;;;;5095047;28;20786;-61
2024/01/06 09:00:31;;;;;;;2.30;1.17;;;15.30;46.40;;;;;;5095168;28;20186;-61
2024/01/06 09:02:57;;;;;;;3.45;1.13;;;15.30;46.50;;;;;;5094954;28;20551;-62
2024/01/06 09:05:24;;;;;;;3.65;1.17;;;15.30;47.10;;;;;;5095139;28;20273;-62
2024/01/06 09:07:51;;;;;;;2.90;1.27;;;15.30;46.50;;;;;;5094758;28;20766;-61
2024/01/06 09:10:19;;;;;;;4.57;1.45;;;15.30;46.50;;;;;;5093662;28;20644;-62
2024/01/06 09:12:46;;;;;;;4.05;1.20;;;15.30;46.50;;;;;;5095052;28;20224;-62
2024/01/06 09:15:14;;;;;;;1.65;0.98;;;15.30;46.50;;;;;;5095019;28;20228;-62
2024/01/06 09:17:41;;;;;;;3.55;1.27;;;15.20;46.40;;;;;;5093682;28;20308;-62
2024/01/06 09:20:09;;;;;;;2.65;1.10;;;15.20;46.50;;;;;;5094509;28;20186;-62
2024/01/06 09:22:36;;;;;;;3.90;1.30;;;15.30;46.50;;;;;;5094908;28;20218;-62
2024/01/06 09:25:03;;;;;;;5.25;1.20;;;15.20;46.50;;;;;;5093548;28;20281;-61
2024/01/06 09:27:30;;;;;;;3.33;1.30;;;15.20;46.50;;;;;;5094403;28;20305;-62
2024/01/06 09:29:57;;;;;;;3.67;1.17;;;15.20;46.50;;;;;;5094562;28;20285;-62
2024/01/06 09:32:25;;;;;;;3.50;1.05;;;15.30;46.60;;;;;;5094367;28;20224;-61
2024/01/06 09:34:52;;;;;;;4.03;1.15;;;15.20;46.50;;;;;;5094277;28;20231;-61
2024/01/06 09:37:19;;;;;;;2.30;1.15;;;15.30;46.70;;;;;;5094484;28;20317;-61
2024/01/06 09:39:45;;;;;;;3.05;1.45;;;15.20;46.60;;;;;;5093425;28;20182;-62
2024/01/06 09:42:12;;;;;;;3.88;1.40;;;15.20;46.60;;;;;;5094216;28;20232;-61
2024/01/06 09:44:39;;;;;;;1.88;1.25;;;15.20;46.60;;;;;;5094457;28;20289;-62
2024/01/06 09:47:07;;;;;;;4.32;1.30;;;15.20;46.60;;;;;;5093949;28;20304;-62
2024/01/06 09:49:39;;;;;;;4.45;1.58;;;15.20;46.70;;;;;;5093940;28;20264;-60
2024/01/06 09:52:15;;;;;;;3.10;1.00;;;15.20;46.70;;;;;;5094148;28;20213;-62
2024/01/06 09:54:51;;;;;;;5.10;1.40;;;15.20;47.00;;;;;;5092879;28;20182;-62
2024/01/06 09:57:18;;;;;;;3.15;1.48;;;15.20;46.70;;;;;;5093865;28;20329;-60
2024/01/06 09:59:46;;;;;;;2.80;1.00;;;15.20;46.70;;;;;;5093811;28;20277;-61
2024/01/06 10:02:16;;;;;;;3.22;1.42;;;15.20;46.80;;;;;;5093800;28;20624;-62
2024/01/06 10:04:44;;;;;;;3.00;1.15;;;15.20;46.70;;;;;;5094162;28;20285;-62
2024/01/06 10:07:13;;;;;;;4.38;1.15;;;15.20;46.70;;;;;;5094020;28;20214;-61
2024/01/06 10:09:42;;;;;;;2.95;1.35;;;15.20;47.50;;;;;;5092828;28;20190;-62
2024/01/06 10:12:10;;;;;;;4.35;1.30;;;15.20;46.80;;;;;;5093820;28;20298;-62
2024/01/06 10:14:37;;;;;;;4.80;1.27;;;15.20;46.80;;;;;;5093760;28;20182;-61
2024/01/06 10:17:07;;;;;;;3.70;1.20;;;15.20;46.80;;;;;;5093347;28;20608;-61
2024/01/06 10:19:33;;;;;;;2.58;1.10;;;15.20;46.80;;;;;;5093573;28;20281;-62
2024/01/06 10:22:02;;;;;;;2.15;1.15;;;15.20;46.90;;;;;;5093626;28;20766;-62
2024/01/06 10:24:30;;;;;;;7.13;1.40;;;15.20;46.90;;;;;;5092347;28;20225;-61
2024/01/06 10:26:57;;;;;;;3.72;1.35;;;15.20;46.90;;;;;;5093534;28;20214;-61
2024/01/06 10:29:25;;;;;;;3.08;1.10;;;15.20;46.90;;;;;;5093500;28;20280;-61
2024/01/06 10:31:53;;;;;;;5.28;1.30;;;15.20;46.90;;;;;;5093004;28;20299;-61
2024/01/06 10:34:20;;;;;;;3.80;1.13;;;15.20;47.00;;;;;;5093107;28;20229;-62
2024/01/06 10:36:47;;;;;;;3.20;1.08;;;15.20;46.90;;;;;;5093199;28;20233;-62
2024/01/06 10:39:16;;;;;;;3.25;1.35;;;15.20;46.90;;;;;;5092035;28;20662;-62
2024/01/06 10:41:44;;;;;;;3.45;1.83;;;15.20;47.00;;;;;;5093100;28;20220;-62
2024/01/06 10:44:12;;;;;;;3.58;1.30;;;15.20;46.90;;;;;;5093497;28;20186;-61
2024/01/06 10:46:39;;;;;;;4.00;1.38;;;15.20;47.00;;;;;;5092745;28;20308;-61
2024/01/06 10:49:08;;;;;;;5.55;1.05;;;15.20;46.90;;;;;;5092912;28;20257;-61
2024/01/06 10:51:37;;;;;;;2.80;1.35;;;15.20;47.00;;;;;;5093121;28;20218;-61
2024/01/06 10:54:04;;;;;;;4.43;1.38;;;15.20;47.00;;;;;;5091982;28;20269;-61
2024/01/06 10:56:37;;;;;;;4.25;1.67;;;15.20;46.90;;;;;;5092838;28;20305;-61
2024/01/06 10:59:04;;;;;;;3.63;1.10;;;15.20;47.00;;;;;;5092589;28;20622;-62
2024/01/06 11:01:32;;;;;;;2.50;1.10;;;15.20;46.90;;;;;;5092826;28;20197;-62
2024/01/06 11:04:00;;;;;;;1.85;1.17;;;15.20;47.00;;;;;;5092868;28;20264;-62
2024/01/06 11:06:28;;;;;;;2.55;1.05;;;15.20;46.90;;;;;;5092754;28;20277;-61
2024/01/06 11:09:03;;;;;;;3.22;1.40;;;15.20;46.90;;;;;;5091973;28;20186;-62
2024/01/06 11:11:30;;;;;;;5.78;1.33;;;15.20;46.90;;;;;;5092786;28;20294;-62
2024/01/06 11:14:19;;;;;;;2.15;1.17;;;15.20;47.00;;;;;;5092810;28;20224;-61
2024/01/06 11:16:45;;;;;;;3.97;1.20;;;15.20;46.90;;;;;;5092290;28;20312;-62
2024/01/06 11:19:43;;;;;;;3.17;1.40;;;15.20;46.90;;;;;;5092770;28;20196;-61
2024/01/06 11:22:20;;;;;;;3.22;1.23;;;15.20;47.00;;;;;;5092519;28;20703;-61
2024/01/06 11:24:49;;;;;;;5.90;1.58;;;15.20;46.90;;;;;;5091664;28;20196;-61
2024/01/06 11:27:19;;;;;;;3.50;1.10;;;15.20;47.00;;;;;;5092557;28;20210;-61
2024/01/06 11:29:48;;;;;;;5.53;1.60;;;15.20;47.60;;;;;;5092185;28;20559;-61
2024/01/06 11:32:20;;;;;;;2.90;1.17;;;15.10;46.80;;;;;;5092113;28;20324;-61
2024/01/06 11:34:50;;;;;;;4.15;1.10;;;15.20;46.90;;;;;;5092136;28;20554;-62
2024/01/06 11:37:19;;;;;;;5.53;1.40;;;15.10;46.80;;;;;;5092081;28;20229;-62
2024/01/06 11:39:46;;;;;;;3.10;1.25;;;15.20;47.60;;;;;;5091426;28;20287;-62
2024/01/06 11:42:14;;;;;;;4.35;1.17;;;15.20;47.00;;;;;;5098497;28;20304;-61
2024/01/06 11:44:45;;;;;;;2.58;1.30;;;15.10;46.80;;;;;;5098848;28;20759;-62
2024/01/06 11:47:15;;;;;;;2.13;1.00;;;15.10;46.90;;;;;;5098857;28;20270;-62
2024/01/06 11:49:45;;;;;;;2.05;1.02;;;15.20;47.00;;;;;;5098684;28;20261;-61
2024/01/06 11:52:13;;;;;;;3.60;0.93;;;15.10;46.80;;;;;;5098953;28;20224;-61
2024/01/06 11:54:41;;;;;;;3.10;1.10;;;15.20;47.00;;;;;;5098092;28;20196;-62
2024/01/06 11:57:09;;;;;;;2.80;1.30;;;15.20;46.90;;;;;;5098920;28;20243;-61
2024/01/06 11:59:36;;;;;;;6.57;1.23;;;15.10;46.90;;;;;;5099634;28;20209;-62
2024/01/06 12:02:03;;;;;;;4.82;1.60;;;15.10;46.90;;;;;;5098609;28;20308;-62
2024/01/06 12:04:31;;;;;;;4.60;1.30;;;15.10;46.80;;;;;;5098635;28;20727;-61
2024/01/06 12:07:06;;;;;;;4.32;1.25;;;15.10;46.90;;;;;;5098997;28;20214;-62
2024/01/06 12:09:33;;;;;;;2.20;1.17;;;15.10;46.80;;;;;;5097648;28;20565;-61
2024/01/06 12:12:06;;;;;;;3.40;1.20;;;15.10;46.90;;;;;;5098842;28;20245;-61
2024/01/06 12:14:33;;;;;;;2.83;1.23;;;15.20;47.00;;;;;;5098814;28;20192;-61
2024/01/06 12:17:02;;;;;;;3.13;1.15;;;15.10;46.90;;;;;;5098558;28;20316;-62
2024/01/06 12:19:31;;;;;;;3.72;1.30;;;15.10;46.90;;;;;;5098791;28;20185;-62
2024/01/06 12:21:58;;;;;;;2.88;1.13;;;15.10;46.90;;;;;;5098755;28;20256;-62
2024/01/06 12:24:27;;;;;;;2.47;1.08;;;15.10;46.90;;;;;;5097727;28;20186;-61
2024/01/06 12:26:56;;;;;;;3.63;1.20;;;15.10;46.90;;;;;;5098840;28;20301;-61
2024/01/06 12:29:23;;;;;;;3.58;1.23;;;15.10;46.80;;;;;;5098661;28;20285;-62
2024/01/06 12:31:50;;;;;;;3.97;1.17;;;15.10;46.80;;;;;;5098181;28;20684;-62
2024/01/06 12:34:17;;;;;;;3.60;1.20;;;15.10;46.90;;;;;;5080540;28;20675;-61
2024/01/06 12:36:46;;;;;;;5.28;1.50;;;15.10;46.80;;;;;;5098808;28;20630;-61
2024/01/06 12:39:14;;;;;;;2.67;1.15;;;15.10;46.80;;;;;;5097245;28;20683;-62
2024/01/06 12:41:42;;;;;;;2.60;1.00;;;15.10;46.80;;;;;;5098185;28;20196;-62
2024/01/06 12:44:09;;;;;;;2.38;1.17;;;15.10;46.70;;;;;;5098602;28;20276;-61
2024/01/06 12:46:36;;;;;;;4.97;1.30;;;15.10;46.80;;;;;;5098450;28;20201;-62
2024/01/06 12:49:03;;;;;;;2.85;1.00;;;15.10;46.70;;;;;;5098465;28;20317;-61